Time;durP1;ratioP1;P1;durP2;ratioP2;P2;SDS_P1;SDS_P2;PMS_P1;PMS_P2;Temp;Humidity;BMP_temperature;BMP_pressure;BME280_temperature;BME280_humidity;BME280_pressure;Samples;Min_cycle;Max_cycle;Signal;HPM_P1;HPM_P2
2023/05/16 00:55:37;;;;;;;;;;;;;;;;;;;;;
2023/05/16 00:59:00;;;;;;;;;;;;;;;;;;;;;
2023/05/16 01:06:11;;;;;;;;;;;;;;;;;;;;;
2023/05/16 01:36:25;;;;;;;7.47;1.52;;;;;;;;;;5999966;23;20004;-96
2023/05/16 01:45:49;;;;;;;6.05;1.08;;;;;;;;;;6044326;23;20030;-95
2023/05/16 01:48:53;;;;;;;6.03;1.48;;;;;;;;;;6046928;23;20007;-96
2023/05/16 01:58:10;;;;;;;;;;;;;;;;;;;;;
2023/05/16 02:01:09;;;;;;;;;;;;;;;;;;;;;
2023/05/16 02:04:14;;;;;;;;;;;;;;;;;;;;;
2023/05/16 02:10:32;;;;;;;;;;;;;;;;;;;;;
2023/05/16 02:35:42;;;;;;;7.78;1.90;;;;;;;;;;6127137;23;20009;-96
2023/05/16 02:41:51;;;;;;;;;;;;;;;;;;;;;
2023/05/16 02:53:47;;;;;;;;;;;;;;;;;;;;;
2023/05/16 03:03:36;;;;;;;10.40;1.87;;;;;;;;;;6035270;23;20011;-96
2023/05/16 03:09:12;;;;;;;7.90;1.37;;;;;;;;;;6107282;23;20054;-96
2023/05/16 03:15:07;;;;;;;;;;;;;;;;;;;;;
2023/05/16 03:18:14;;;;;;;;;;;;;;;;;;;;;
2023/05/16 03:37:23;;;;;;;7.37;1.53;;;;;;;;;;6250547;22;20023;-94
2023/05/16 03:43:28;;;;;;;6.37;1.30;;;;;;;;;;6194409;22;20082;-93
2023/05/16 03:49:10;;;;;;;;;;;;;;;;;;;;;
2023/05/16 03:54:55;;;;;;;9.27;1.20;;;;;;;;;;6220650;22;20011;-96
2023/05/16 03:57:46;;;;;;;5.87;1.57;;;;;;;;;;6252292;22;20073;-94
2023/05/16 04:10:03;;;;;;;;;;;;;;;;;;;;;
2023/05/16 04:19:02;;;;;;;;;;;;;;;;;;;;;
2023/05/16 04:28:21;;;;;;;9.17;1.87;;;;;;;;;;6184884;23;20013;-94
2023/05/16 04:34:46;;;;;;;5.17;1.40;;;;;;;;;;6108998;23;20013;-96
2023/05/16 04:37:34;;;;;;;;;;;;;;;;;;;;;
2023/05/16 04:40:27;;;;;;;;;;;;;;;;;;;;;
2023/05/16 04:43:22;;;;;;;6.90;1.30;;;;;;;;;;6282909;22;20011;-96
2023/05/16 04:49:18;;;;;;;7.00;1.43;;;;;;;;;;6225343;22;20011;-96
2023/05/16 04:55:01;;;;;;;8.38;1.35;;;;;;;;;;6273765;22;20026;-96
2023/05/16 05:04:28;;;;;;;;;;;;;;;;;;;;;
2023/05/16 05:10:26;;;;;;;;;;;;;;;;;;;;;
2023/05/16 05:16:21;;;;;;;;;;;;;;;;;;;;;
2023/05/16 05:22:15;;;;;;;11.60;2.28;;;;;;;;;;6263110;22;20003;-96
2023/05/16 05:35:07;;;;;;;;;;;;;;;;;;;;;
2023/05/16 05:37:39;;;;;;;7.53;1.55;;;;;;;;;;6121885;23;20053;-96
2023/05/16 05:43:43;;;;;;;7.75;1.85;;;;;;;;;;6283792;22;20006;-96
2023/05/16 05:46:36;;;;;;;8.07;1.60;;;;;;;;;;6257679;22;20012;-96
2023/05/16 05:52:29;;;;;;;;;;;;;;;;;;;;;
2023/05/16 05:58:10;;;;;;;;;;;;;;;;;;;;;
2023/05/16 06:01:06;;;;;;;6.32;1.52;;;;;;;;;;6284152;22;20019;-96
2023/05/16 06:03:47;;;;;;;;;;;;;;;;;;;;;
2023/05/16 06:09:55;;;;;;;;;;;;;;;;;;;;;
2023/05/16 06:25:03;;;;;;;;;;;;;;;;;;;;;
2023/05/16 06:30:42;;;;;;;2.37;0.80;;;;;;;;;;6258520;22;20003;-96
2023/05/16 06:34:22;;;;;;;;;;;;;;;;;;;;;
2023/05/16 06:36:49;;;;;;;;;;;;;;;;;;;;;
2023/05/16 06:39:40;;;;;;;8.65;1.80;;;;;;;;;;6268782;22;20398;-96
2023/05/16 06:45:52;;;;;;;;;;;;;;;;;;;;;
2023/05/16 06:51:44;;;;;;;;;;;;;;;;;;;;;
2023/05/16 07:16:31;;;;;;;;;;;;;;;;;;;;;
2023/05/16 07:19:10;;;;;;;9.25;1.00;;;;;;;;;;6182477;23;20330;-95
2023/05/16 07:22:06;;;;;;;6.47;1.23;;;;;;;;;;6190839;23;20004;-95
2023/05/16 07:30:48;;;;;;;9.52;1.13;;;;;;;;;;6204443;23;20058;-95
2023/05/16 07:37:06;;;;;;;2.33;0.70;;;;;;;;;;6013724;23;20045;-95
2023/05/16 07:46:39;;;;;;;12.90;1.70;;;;;;;;;;6038947;23;20396;-96
2023/05/16 08:36:24;;;;;;;;;;;;;;;;;;;;;
2023/05/16 08:51:46;;;;;;;;;;;;;;;;;;;;;
2023/05/16 08:55:00;;;;;;;;;;;;;;;;;;;;;
2023/05/16 09:21:22;;;;;;;5.03;0.82;;;;;;;;;;6124976;23;20006;-95
2023/05/16 09:37:00;;;;;;;;;;;;;;;;;;;;;
2023/05/16 09:46:31;;;;;;;;;;;;;;;;;;;;;
2023/05/16 09:49:33;;;;;;;;;;;;;;;;;;;;;
2023/05/16 10:02:56;;;;;;;;;;;;;;;;;;;;;
2023/05/16 10:05:23;;;;;;;;;;;;;;;;;;;;;
2023/05/16 10:11:37;;;;;;;3.85;0.65;;;;;;;;;;5869496;24;20017;-96
2023/05/16 10:15:08;;;;;;;;;;;;;;;;;;;;;
2023/05/16 10:17:47;;;;;;;;;;;;;;;;;;;;;
2023/05/16 10:26:51;;;;;;;3.95;0.73;;;;;;;;;;5823485;24;20014;-96
2023/05/16 10:36:15;;;;;;;;;;;;;;;;;;;;;
2023/05/16 10:45:23;;;;;;;;;;;;;;;;;;;;;
2023/05/16 10:48:15;;;;;;;5.85;0.50;;;;;;;;;;5967828;23;20026;-96
2023/05/16 10:51:01;;;;;;;;;;;;;;;;;;;;;
2023/05/16 10:53:53;;;;;;;2.90;0.52;;;;;;;;;;6102792;23;20022;-96
2023/05/16 11:03:05;;;;;;;;;;;;;;;;;;;;;
2023/05/16 11:05:52;;;;;;;;;;;;;;;;;;;;;
2023/05/16 11:12:30;;;;;;;2.97;0.63;;;;;;;;;;6134494;23;20013;-96
2023/05/16 11:18:38;;;;;;;2.75;0.63;;;;;;;;;;6155301;23;20017;-96
2023/05/16 11:21:40;;;;;;;;;;;;;;;;;;;;;
2023/05/16 11:24:40;;;;;;;3.35;0.50;;;;;;;;;;6135636;23;20084;-96
2023/05/16 11:27:56;;;;;;;2.03;0.50;;;;;;;;;;6249027;23;20008;-96
2023/05/16 11:30:43;;;;;;;;;;;;;;;;;;;;;
2023/05/16 11:33:58;;;;;;;;;;;;;;;;;;;;;
2023/05/16 11:58:12;;;;;;;;;;;;;;;;;;;;;
2023/05/16 12:00:27;;;;;;;1.90;0.50;;;;;;;;;;6112895;23;20006;-95
2023/05/16 12:13:15;;;;;;;;;;;;;;;;;;;;;
2023/05/16 12:16:16;;;;;;;;;;;;;;;;;;;;;
2023/05/16 12:19:25;;;;;;;;;;;;;;;;;;;;;
2023/05/16 12:25:42;;;;;;;;;;;;;;;;;;;;;
2023/05/16 12:28:42;;;;;;;;;;;;;;;;;;;;;
2023/05/16 12:44:22;;;;;;;;;;;;;;;;;;;;;
2023/05/16 12:50:39;;;;;;;;;;;;;;;;;;;;;
2023/05/16 12:55:52;;;;;;;1.88;0.50;;;;;;;;;;6289392;22;20027;-96
2023/05/16 12:59:12;;;;;;;;;;;;;;;;;;;;;
2023/05/16 13:02:02;;;;;;;2.10;0.68;;;;;;;;;;6219820;23;20008;-96
2023/05/16 13:07:45;;;;;;;;;;;;;;;;;;;;;
2023/05/16 13:10:43;;;;;;;;;;;;;;;;;;;;;
2023/05/16 13:19:09;;;;;;;;;;;;;;;;;;;;;
2023/05/16 13:25:38;;;;;;;;;;;;;;;;;;;;;
2023/05/16 13:28:29;;;;;;;4.60;0.70;;;;;;;;;;6284154;22;20014;-96
2023/05/16 13:34:17;;;;;;;;;;;;;;;;;;;;;
2023/05/16 13:37:11;;;;;;;2.30;0.40;;;;;;;;;;6274683;22;20034;-96
2023/05/16 13:43:20;;;;;;;;;;;;;;;;;;;;;
2023/05/16 13:48:54;;;;;;;;;;;;;;;;;;;;;
2023/05/16 13:52:04;;;;;;;;;;;;;;;;;;;;;
2023/05/16 13:54:51;;;;;;;5.95;0.57;;;;;;;;;;6253467;22;20023;-96
2023/05/16 13:57:26;;;;;;;2.50;0.70;;;;;;;;;;6257348;22;20000;-96
2023/05/16 14:00:02;;;;;;;;;;;;;;;;;;;;;
2023/05/16 14:02:38;;;;;;;3.67;1.20;;;;;;;;;;6279273;22;20020;-96
2023/05/16 14:23:51;;;;;;;2.85;0.50;;;;;;;;;;6267508;22;20031;-96
2023/05/16 14:26:54;;;;;;;1.98;0.63;;;;;;;;;;6133792;23;20020;-96
2023/05/16 14:30:01;;;;;;;2.60;0.82;;;;;;;;;;6152391;22;20012;-96
2023/05/16 14:35:48;;;;;;;4.68;1.00;;;;;;;;;;6159151;23;20006;-95
2023/05/16 14:38:32;;;;;;;3.28;0.77;;;;;;;;;;6089948;23;20432;-96
2023/05/16 14:44:28;;;;;;;;;;;;;;;;;;;;;
2023/05/16 14:47:06;;;;;;;;;;;;;;;;;;;;;
2023/05/16 14:59:22;;;;;;;;;;;;;;;;;;;;;
2023/05/16 15:02:16;;;;;;;2.60;0.57;;;;;;;;;;6182835;23;20025;-96
2023/05/16 15:04:56;;;;;;;1.73;0.70;;;;;;;;;;6283703;22;20020;-96
2023/05/16 15:07:31;;;;;;;4.03;0.55;;;;;;;;;;6254400;22;19999;-96
2023/05/16 15:10:18;;;;;;;;;;;;;;;;;;;;;
2023/05/16 15:13:19;;;;;;;;;;;;;;;;;;;;;
2023/05/16 15:19:04;;;;;;;3.45;0.70;;;;;;;;;;6191641;23;20012;-96
2023/05/16 15:22:17;;;;;;;7.00;0.90;;;;;;;;;;6248978;22;19996;-95
2023/05/16 15:24:47;;;;;;;1.13;0.60;;;;;;;;;;6269286;22;20431;-96
2023/05/16 15:27:25;;;;;;;1.75;0.50;;;;;;;;;;6257057;22;20241;-96
2023/05/16 15:30:24;;;;;;;3.40;0.45;;;;;;;;;;6259265;22;20019;-96
2023/05/16 15:32:54;;;;;;;5.93;0.85;;;;;;;;;;6278287;22;20000;-95
2023/05/16 15:36:08;;;;;;;;;;;;;;;;;;;;;
2023/05/16 15:38:58;;;;;;;;;;;;;;;;;;;;;
2023/05/16 15:41:31;;;;;;;3.15;0.60;;;;;;;;;;6274291;22;20030;-96
2023/05/16 15:44:09;;;;;;;;;;;;;;;;;;;;;
2023/05/16 15:46:55;;;;;;;;;;;;;;;;;;;;;
2023/05/16 15:49:26;;;;;;;4.22;0.63;;;;;;;;;;6279508;22;20056;-96
2023/05/16 15:58:25;;;;;;;5.72;0.80;;;;;;;;;;6247850;22;20091;-96
2023/05/16 16:07:17;;;;;;;;;;;;;;;;;;;;;
2023/05/16 16:10:38;;;;;;;;;;;;;;;;;;;;;
2023/05/16 16:16:14;;;;;;;7.90;0.93;;;;;;;;;;6277474;22;19996;-96
2023/05/16 16:19:01;;;;;;;4.00;0.52;;;;;;;;;;6254065;22;20116;-96
2023/05/16 16:24:52;;;;;;;;;;;;;;;;;;;;;
2023/05/16 16:27:38;;;;;;;2.10;0.52;;;;;;;;;;6281536;22;20038;-96
2023/05/16 16:33:47;;;;;;;;;;;;;;;;;;;;;
2023/05/16 16:46:58;;;;;;;;;;;;;;;;;;;;;
2023/05/16 16:49:22;;;;;;;;;;;;;;;;;;;;;
2023/05/16 16:52:12;;;;;;;1.35;0.45;;;;;;;;;;6274085;22;20023;-95
2023/05/16 16:55:11;;;;;;;;;;;;;;;;;;;;;
2023/05/16 17:01:03;;;;;;;;;;;;;;;;;;;;;
2023/05/16 17:03:40;;;;;;;2.08;0.57;;;;;;;;;;6275869;22;20023;-95
2023/05/16 17:06:39;;;;;;;3.53;0.40;;;;;;;;;;6256235;22;20031;-96
2023/05/16 17:09:25;;;;;;;2.28;0.55;;;;;;;;;;6256207;22;20031;-95
2023/05/16 17:12:17;;;;;;;1.38;0.38;;;;;;;;;;6235735;22;20007;-96
2023/05/16 17:15:15;;;;;;;;;;;;;;;;;;;;;
2023/05/16 17:18:10;;;;;;;3.58;0.47;;;;;;;;;;6285555;22;20038;-95
2023/05/16 17:21:13;;;;;;;5.78;0.57;;;;;;;;;;6255438;22;20004;-95
2023/05/16 17:27:02;;;;;;;2.13;0.50;;;;;;;;;;6270491;22;20003;-96
2023/05/16 17:32:22;;;;;;;5.53;0.60;;;;;;;;;;6283666;22;20386;-96
2023/05/16 17:35:11;;;;;;;1.23;0.30;;;;;;;;;;6256746;22;19995;-95
2023/05/16 17:37:48;;;;;;;;;;;;;;;;;;;;;
2023/05/16 17:40:34;;;;;;;;;;;;;;;;;;;;;
2023/05/16 17:43:35;;;;;;;;;;;;;;;;;;;;;
2023/05/16 17:46:08;;;;;;;1.88;0.50;;;;;;;;;;6274118;22;20054;-96
2023/05/16 17:48:39;;;;;;;2.03;0.63;;;;;;;;;;6251075;22;20426;-96
2023/05/16 17:51:22;;;;;;;6.32;0.50;;;;;;;;;;6248766;22;20008;-95
2023/05/16 17:53:51;;;;;;;6.88;0.55;;;;;;;;;;6249979;22;20004;-96
2023/05/16 17:56:41;;;;;;;1.48;0.40;;;;;;;;;;6250783;22;20090;-96
2023/05/16 17:59:18;;;;;;;2.38;0.50;;;;;;;;;;6281390;22;20003;-96
2023/05/16 18:01:49;;;;;;;1.15;0.40;;;;;;;;;;6278129;22;20011;-96
2023/05/16 18:04:28;;;;;;;0.82;0.30;;;;;;;;;;6250742;22;20015;-96
2023/05/16 18:06:55;;;;;;;4.00;0.43;;;;;;;;;;6250879;22;20030;-94
2023/05/16 18:09:36;;;;;;;;;;;;;;;;;;;;;
2023/05/16 18:15:19;;;;;;;0.93;0.30;;;;;;;;;;6246031;22;20014;-96
2023/05/16 18:21:06;;;;;;;2.05;0.45;;;;;;;;;;6280249;22;20022;-95
2023/05/16 18:23:59;;;;;;;1.88;0.75;;;;;;;;;;6253139;22;19996;-96
2023/05/16 18:29:33;;;;;;;4.15;0.70;;;;;;;;;;6281392;22;20051;-95
2023/05/16 18:32:37;;;;;;;1.00;0.60;;;;;;;;;;6276835;22;20062;-95
2023/05/16 18:35:14;;;;;;;2.45;0.50;;;;;;;;;;6209101;22;20000;-96
2023/05/16 18:37:49;;;;;;;2.33;0.57;;;;;;;;;;6253952;22;19992;-96
2023/05/16 18:40:24;;;;;;;2.63;0.50;;;;;;;;;;6250813;22;20003;-96
2023/05/16 18:42:58;;;;;;;3.70;0.95;;;;;;;;;;6273321;22;19996;-95
2023/05/16 18:45:32;;;;;;;3.83;0.60;;;;;;;;;;6251157;22;20028;-96
2023/05/16 18:48:03;;;;;;;3.03;0.60;;;;;;;;;;6253125;22;20299;-95
2023/05/16 18:53:49;;;;;;;2.05;0.60;;;;;;;;;;6267514;22;19999;-94
2023/05/16 18:56:28;;;;;;;3.13;0.70;;;;;;;;;;6252634;22;20007;-95
2023/05/16 18:59:09;;;;;;;2.90;0.80;;;;;;;;;;6251654;22;20457;-96
2023/05/16 19:01:37;;;;;;;4.30;0.70;;;;;;;;;;6252686;22;20066;-96
2023/05/16 19:04:30;;;;;;;4.15;0.70;;;;;;;;;;6252422;22;20037;-96
2023/05/16 19:07:05;;;;;;;1.95;0.73;;;;;;;;;;6252278;22;20000;-95
2023/05/16 19:09:38;;;;;;;4.53;0.70;;;;;;;;;;6253706;22;20406;-95
2023/05/16 19:15:26;;;;;;;3.70;0.70;;;;;;;;;;6202097;22;19999;-96
2023/05/16 19:18:21;;;;;;;;;;;;;;;;;;;;;
2023/05/16 19:20:47;;;;;;;1.50;0.80;;;;;;;;;;6275772;22;20004;-95
2023/05/16 19:23:25;;;;;;;;;;;;;;;;;;;;;
2023/05/16 19:25:56;;;;;;;2.60;0.80;;;;;;;;;;6279103;22;20090;-96
2023/05/16 19:28:32;;;;;;;2.28;0.80;;;;;;;;;;6252032;22;20000;-96
2023/05/16 19:31:32;;;;;;;7.13;0.80;;;;;;;;;;6252792;22;20000;-96
2023/05/16 19:34:13;;;;;;;8.00;1.20;;;;;;;;;;6255203;22;19999;-96
2023/05/16 19:37:00;;;;;;;4.05;0.90;;;;;;;;;;6254847;22;20004;-96
2023/05/16 19:39:37;;;;;;;3.03;1.10;;;;;;;;;;6253889;22;20008;-96
2023/05/16 19:42:07;;;;;;;5.55;1.13;;;;;;;;;;6252698;22;19999;-96
2023/05/16 19:44:53;;;;;;;7.57;1.30;;;;;;;;;;6252118;22;20008;-96
2023/05/16 19:47:29;;;;;;;5.78;1.70;;;;;;;;;;6251976;22;19999;-96
2023/05/16 19:49:57;;;;;;;5.82;1.60;;;;;;;;;;6252731;22;20253;-96
2023/05/16 19:52:31;;;;;;;5.80;1.17;;;;;;;;;;6252250;22;20000;-96
2023/05/16 19:55:30;;;;;;;4.75;1.80;;;;;;;;;;6250598;22;20000;-96
2023/05/16 19:58:01;;;;;;;8.40;1.90;;;;;;;;;;6252636;22;19995;-95
2023/05/16 20:00:29;;;;;;;5.65;1.40;;;;;;;;;;6254969;22;20054;-96
2023/05/16 20:02:57;;;;;;;5.22;1.40;;;;;;;;;;6251983;22;20007;-96
2023/05/16 20:06:06;;;;;;;4.43;1.48;;;;;;;;;;6250919;22;20019;-96
2023/05/16 20:11:47;;;;;;;5.78;2.00;;;;;;;;;;6247941;22;20000;-95
2023/05/16 20:14:19;;;;;;;3.30;1.75;;;;;;;;;;6278280;22;19995;-96
2023/05/16 20:17:08;;;;;;;8.43;2.30;;;;;;;;;;6252564;22;20133;-96
2023/05/16 20:19:46;;;;;;;;;;;;;;;;;;;;;
2023/05/16 20:22:32;;;;;;;8.63;2.10;;;;;;;;;;6279490;22;20019;-96
2023/05/16 20:25:06;;;;;;;7.63;1.80;;;;;;;;;;6231123;22;20015;-95
2023/05/16 20:30:22;;;;;;;4.22;1.95;;;;;;;;;;6273387;22;20087;-96
2023/05/16 20:33:38;;;;;;;5.88;1.92;;;;;;;;;;6278233;22;20007;-96
2023/05/16 20:35:47;;;;;;;3.72;2.08;;;;;;;;;;6274911;22;20004;-95
2023/05/16 20:38:45;;;;;;;;;;;;;;;;;;;;;
2023/05/16 20:41:34;;;;;;;7.50;2.13;;;;;;;;;;6279351;22;20462;-96
2023/05/16 20:43:59;;;;;;;5.97;1.75;;;;;;;;;;6251902;22;20004;-96
2023/05/16 20:46:40;;;;;;;;;;;;;;;;;;;;;
2023/05/16 20:49:16;;;;;;;6.60;1.75;;;;;;;;;;6279903;22;20023;-96
2023/05/16 20:51:51;;;;;;;4.63;1.77;;;;;;;;;;6250837;22;20026;-95
2023/05/16 20:54:25;;;;;;;6.40;1.77;;;;;;;;;;6276407;22;19999;-96
2023/05/16 20:57:01;;;;;;;10.57;2.45;;;;;;;;;;6251278;22;20027;-94
2023/05/16 21:02:39;;;;;;;10.07;2.13;;;;;;;;;;6266265;22;20182;-95
2023/05/16 21:05:12;;;;;;;6.28;1.73;;;;;;;;;;6251106;22;20014;-95
2023/05/16 21:07:38;;;;;;;7.78;1.92;;;;;;;;;;6274949;22;20047;-95
2023/05/16 21:10:04;;;;;;;9.18;2.17;;;;;;;;;;6249741;22;20015;-95
2023/05/16 21:12:31;;;;;;;5.70;1.70;;;;;;;;;;6248166;22;20425;-95
2023/05/16 21:14:59;;;;;;;8.32;1.95;;;;;;;;;;6248405;22;19999;-94
2023/05/16 21:17:30;;;;;;;10.85;2.05;;;;;;;;;;6247895;22;20008;-96
2023/05/16 21:19:55;;;;;;;5.45;1.63;;;;;;;;;;6247425;22;20007;-96
2023/05/16 21:22:23;;;;;;;9.73;2.13;;;;;;;;;;6249247;22;20016;-96
2023/05/16 21:24:48;;;;;;;3.78;1.70;;;;;;;;;;6273618;22;20070;-95
2023/05/16 21:27:14;;;;;;;6.32;2.00;;;;;;;;;;6255465;22;20004;-95
2023/05/16 21:29:52;;;;;;;;;;;;;;;;;;;;;
2023/05/16 21:32:28;;;;;;;6.00;2.15;;;;;;;;;;6276695;22;20075;-94
2023/05/16 21:35:03;;;;;;;9.68;2.30;;;;;;;;;;6249672;22;20007;-94
2023/05/16 21:37:31;;;;;;;5.72;1.80;;;;;;;;;;6248815;22;20006;-96
2023/05/16 21:40:00;;;;;;;3.65;2.08;;;;;;;;;;6249208;22;20058;-95
2023/05/16 21:42:30;;;;;;;4.93;1.60;;;;;;;;;;6248927;22;20003;-95
2023/05/16 21:45:01;;;;;;;11.23;2.30;;;;;;;;;;6249997;22;20596;-95
2023/05/16 21:47:29;;;;;;;7.47;2.83;;;;;;;;;;6250070;22;20000;-96
2023/05/16 21:49:57;;;;;;;10.35;2.08;;;;;;;;;;6250209;22;20058;-96
2023/05/16 21:52:27;;;;;;;9.18;1.90;;;;;;;;;;6248451;22;20479;-95
2023/05/16 21:54:55;;;;;;;8.60;2.13;;;;;;;;;;6250619;22;20057;-96
2023/05/16 21:57:22;;;;;;;11.57;2.25;;;;;;;;;;6251472;22;20000;-96
2023/05/16 21:59:50;;;;;;;7.88;1.85;;;;;;;;;;6247974;22;20011;-95
2023/05/16 22:02:25;;;;;;;;;;;;;;;;;;;;;
2023/05/16 22:04:52;;;;;;;9.32;2.22;;;;;;;;;;6277274;22;20094;-95
2023/05/16 22:07:22;;;;;;;9.10;1.95;;;;;;;;;;6275897;22;20022;-95
2023/05/16 22:09:52;;;;;;;7.72;1.77;;;;;;;;;;6274620;22;20004;-96
2023/05/16 22:12:39;;;;;;;6.72;1.88;;;;;;;;;;6250135;22;20000;-95
2023/05/16 22:15:12;;;;;;;10.18;1.90;;;;;;;;;;6276038;22;19996;-95
2023/05/16 22:17:48;;;;;;;;;;;;;;;;;;;;;
2023/05/16 22:20:15;;;;;;;7.15;1.75;;;;;;;;;;6277643;22;20064;-96
2023/05/16 22:22:43;;;;;;;7.35;2.08;;;;;;;;;;6249059;22;20449;-95
2023/05/16 22:25:15;;;;;;;3.72;1.58;;;;;;;;;;6249078;22;20011;-95
2023/05/16 22:27:48;;;;;;;9.85;1.98;;;;;;;;;;6248571;22;20332;-96
2023/05/16 22:30:13;;;;;;;5.57;1.83;;;;;;;;;;6248958;22;19991;-96
2023/05/16 22:32:41;;;;;;;7.72;1.92;;;;;;;;;;6250789;22;20038;-96
2023/05/16 22:35:15;;;;;;;11.27;2.17;;;;;;;;;;6250093;22;20155;-96
2023/05/16 22:37:41;;;;;;;6.22;2.08;;;;;;;;;;6249749;22;20003;-96
2023/05/16 22:40:16;;;;;;;9.27;1.88;;;;;;;;;;6250734;22;20425;-95
2023/05/16 22:42:41;;;;;;;9.65;2.22;;;;;;;;;;6249813;22;20003;-96
2023/05/16 22:45:07;;;;;;;4.82;1.95;;;;;;;;;;6251140;22;21044;-95
2023/05/16 22:47:40;;;;;;;7.47;1.80;;;;;;;;;;6276206;22;20006;-95
2023/05/16 22:50:17;;;;;;;;;;;;;;;;;;;;;
2023/05/16 22:52:43;;;;;;;8.45;2.42;;;;;;;;;;6264133;22;20075;-96
2023/05/16 22:55:09;;;;;;;11.35;1.98;;;;;;;;;;6250289;22;20012;-96
2023/05/16 22:57:59;;;;;;;8.43;2.08;;;;;;;;;;6248845;22;20071;-95
2023/05/16 23:00:27;;;;;;;6.68;2.05;;;;;;;;;;6268926;22;20000;-96
2023/05/16 23:02:54;;;;;;;7.28;2.95;;;;;;;;;;6250344;22;20003;-95
2023/05/16 23:05:22;;;;;;;11.48;2.40;;;;;;;;;;6250043;22;20030;-96
2023/05/16 23:07:49;;;;;;;12.05;2.20;;;;;;;;;;6248014;22;20034;-96
2023/05/16 23:10:15;;;;;;;4.82;1.98;;;;;;;;;;6251760;22;20061;-96
2023/05/16 23:12:40;;;;;;;6.03;2.15;;;;;;;;;;6247414;22;19996;-94
2023/05/16 23:15:09;;;;;;;7.03;2.42;;;;;;;;;;6251140;22;20078;-96
2023/05/16 23:17:37;;;;;;;9.95;2.28;;;;;;;;;;6248706;22;20011;-96
2023/05/16 23:20:03;;;;;;;6.63;2.45;;;;;;;;;;6274342;22;20015;-95
2023/05/16 23:22:29;;;;;;;11.50;2.50;;;;;;;;;;6274841;22;20004;-94
2023/05/16 23:24:57;;;;;;;8.45;2.70;;;;;;;;;;6246608;22;20422;-95
2023/05/16 23:27:22;;;;;;;8.85;2.08;;;;;;;;;;6249331;22;19996;-95
2023/05/16 23:29:48;;;;;;;5.93;2.00;;;;;;;;;;6250019;22;20087;-96
2023/05/16 23:32:16;;;;;;;10.95;2.83;;;;;;;;;;6248428;22;19999;-95
2023/05/16 23:35:08;;;;;;;12.73;2.58;;;;;;;;;;6247507;22;19999;-95
2023/05/16 23:37:51;;;;;;;11.93;2.63;;;;;;;;;;6267644;22;20003;-95
2023/05/16 23:40:19;;;;;;;8.25;2.85;;;;;;;;;;6248864;22;20058;-96
2023/05/16 23:42:45;;;;;;;4.65;2.30;;;;;;;;;;6248321;22;20449;-95
2023/05/16 23:45:15;;;;;;;5.93;2.25;;;;;;;;;;6249875;22;20008;-96
2023/05/16 23:47:56;;;;;;;7.07;2.40;;;;;;;;;;6266995;22;20101;-95
2023/05/16 23:50:22;;;;;;;9.63;2.65;;;;;;;;;;6271857;22;20000;-95
2023/05/16 23:52:47;;;;;;;6.85;2.17;;;;;;;;;;6248443;22;19996;-96
2023/05/16 23:55:14;;;;;;;11.15;3.22;;;;;;;;;;6252340;22;20011;-96
2023/05/16 23:57:59;;;;;;;5.75;2.30;;;;;;;;;;6277021;22;19992;-96
